createdAt,value
2019-05-11T00:02:09.880Z,94.10
2019-05-11T00:04:39.199Z,94.00
2019-05-11T00:07:08.355Z,94.40
2019-05-11T00:09:57.083Z,94.70
2019-05-11T00:12:12.651Z,94.40
2019-05-11T00:14:42.991Z,94.30
2019-05-11T00:17:12.145Z,94.40
2019-05-11T00:19:41.599Z,94.30
2019-05-11T00:22:10.973Z,94.20
2019-05-11T00:24:40.296Z,93.80
2019-05-11T00:27:09.877Z,93.20
2019-05-11T00:29:47.077Z,93.80
2019-05-11T00:32:17.146Z,93.50
2019-05-11T00:34:46.296Z,93.60
2019-05-11T00:37:21.821Z,93.80
2019-05-11T00:39:51.161Z,93.60
2019-05-11T00:42:20.569Z,93.60
2019-05-11T00:44:58.438Z,93.60
2019-05-11T00:47:28.654Z,93.50
2019-05-11T00:49:59.529Z,93.50
2019-05-11T00:55:03.888Z,93.80
2019-05-11T00:57:32.891Z,93.50
2019-05-11T01:00:02.153Z,93.40
2019-05-11T01:02:31.895Z,93.70
2019-05-11T01:05:04.594Z,94.10
2019-05-11T01:07:40.511Z,94.50
2019-05-11T01:10:22.941Z,94.50
2019-05-11T01:12:44.924Z,94.10
2019-05-11T01:15:15.397Z,94.60
2019-05-11T01:17:44.486Z,94.60
2019-05-11T01:20:18.725Z,94.20
2019-05-11T01:22:48.249Z,94.10
2019-05-11T01:25:18.717Z,94.00
2019-05-11T01:27:52.355Z,94.30
2019-05-11T01:30:22.437Z,94.40
2019-05-11T01:32:51.707Z,94.50
2019-05-11T01:35:21.529Z,94.50
2019-05-11T01:37:50.671Z,94.40
2019-05-11T01:40:21.840Z,94.80
2019-05-11T01:42:51.432Z,94.60
2019-05-11T01:45:22.590Z,94.90
2019-05-11T01:47:52.123Z,95.00
2019-05-11T01:50:21.550Z,95.10
2019-05-11T01:52:51.292Z,95.10
2019-05-11T01:55:26.462Z,95.20
2019-05-11T01:57:55.810Z,95.20
2019-05-11T02:00:25.724Z,95.00
2019-05-11T02:02:58.396Z,95.30
2019-05-11T02:05:29.049Z,95.40
2019-05-11T02:07:59.727Z,94.50
2019-05-11T02:10:36.359Z,94.70
2019-05-11T02:13:02.780Z,94.20
2019-05-11T02:15:32.495Z,94.10
2019-05-11T02:18:02.256Z,94.10
2019-05-11T02:20:31.475Z,94.00
2019-05-11T02:23:03.822Z,94.20
2019-05-11T02:25:34.865Z,94.40
2019-05-11T02:28:04.365Z,94.50
2019-05-11T02:30:38.350Z,94.70
2019-05-11T02:33:08.352Z,94.80
2019-05-11T02:35:37.805Z,94.80
2019-05-11T02:38:14.098Z,94.90
2019-05-11T02:40:44.474Z,95.40
2019-05-11T02:43:14.225Z,95.30
2019-05-11T02:45:48.922Z,95.30
2019-05-11T02:48:18.580Z,95.80
2019-05-11T02:50:48.269Z,96.50
2019-05-11T02:53:22.296Z,97.20
2019-05-11T02:55:54.866Z,97.30
2019-05-11T02:58:23.941Z,97.50
2019-05-11T03:01:04.098Z,97.50
2019-05-11T03:03:34.838Z,97.50
2019-05-11T03:06:23.288Z,96.90
2019-05-11T03:08:59.407Z,96.90
2019-05-11T03:11:29.696Z,97.40
2019-05-11T03:14:00.424Z,96.90
2019-05-11T03:16:37.988Z,96.90
2019-05-11T03:19:09.471Z,96.90
2019-05-11T03:21:38.805Z,96.90
2019-05-11T03:24:17.355Z,97.50
2019-05-11T03:26:47.321Z,98.20
2019-05-11T03:29:17.606Z,98.30
2019-05-11T03:31:49.234Z,98.00
2019-05-11T03:34:19.545Z,97.70
2019-05-11T03:36:48.762Z,97.90
2019-05-11T03:39:18.681Z,97.90
2019-05-11T03:41:47.940Z,97.60
2019-05-11T03:44:20.431Z,97.40
2019-05-11T03:46:49.460Z,97.30
2019-05-11T03:49:19.906Z,97.40
2019-05-11T03:51:59.513Z,97.20
2019-05-11T03:54:28.602Z,97.40
2019-05-11T03:56:57.821Z,97.30
2019-05-11T03:59:33.583Z,97.40
2019-05-11T04:02:01.857Z,97.20
2019-05-11T04:04:31.035Z,97.00
2019-05-11T04:07:06.623Z,97.20
2019-05-11T04:09:36.661Z,97.20
2019-05-11T04:12:06.236Z,97.60
2019-05-11T04:14:41.715Z,97.80
2019-05-11T04:17:12.650Z,97.70
2019-05-11T04:19:42.060Z,97.70
2019-05-11T04:22:38.376Z,97.70
2019-05-11T04:25:08.145Z,97.90
2019-05-11T04:27:39.137Z,98.10
2019-05-11T04:30:12.428Z,98.10
2019-05-11T04:32:42.369Z,98.10
2019-05-11T04:35:16.238Z,98.60
2019-05-11T04:38:10.900Z,99.60
2019-05-11T04:40:40.826Z,98.40
2019-05-11T04:43:10.528Z,98.40
2019-05-11T04:45:48.821Z,98.70
2019-05-11T04:48:19.012Z,98.90
2019-05-11T04:50:48.554Z,98.70
2019-05-11T04:53:27.745Z,99.00
2019-05-11T04:55:57.884Z,98.70
2019-05-11T04:58:27.679Z,98.70
2019-05-11T05:01:04.198Z,98.70
2019-05-11T05:03:40.806Z,98.80
2019-05-11T05:06:23.940Z,98.80
2019-05-11T05:08:36.887Z,99.40
2019-05-11T05:11:05.623Z,98.50
2019-05-11T05:13:34.888Z,98.50
2019-05-11T05:16:04.297Z,98.20
2019-05-11T05:18:34.846Z,98.20
2019-05-11T05:21:04.363Z,97.90
2019-05-11T05:23:35.125Z,98.00
2019-05-11T05:26:05.779Z,97.70
2019-05-11T05:28:45.698Z,97.90
2019-05-11T05:31:14.241Z,98.20
2019-05-11T05:33:43.158Z,98.20
2019-05-11T05:36:23.090Z,98.20
2019-05-11T05:38:52.769Z,98.50
2019-05-11T05:41:23.025Z,97.90
2019-05-11T05:44:01.814Z,97.80
2019-05-11T05:46:24.464Z,98.10
2019-05-11T05:48:54.044Z,97.80
2019-05-11T05:51:23.688Z,97.60
2019-05-11T05:53:52.696Z,97.60
2019-05-11T05:56:34.119Z,98.00
2019-05-11T05:59:05.035Z,97.90
2019-05-11T06:01:40.615Z,98.20
2019-05-11T06:04:17.666Z,97.60
2019-05-11T06:06:47.935Z,96.70
2019-05-11T06:09:19.039Z,97.10
2019-05-11T06:11:52.708Z,96.90
2019-05-11T06:14:22.935Z,97.30
2019-05-11T06:16:52.858Z,97.50
2019-05-11T06:19:29.199Z,97.30
2019-05-11T06:21:58.899Z,97.70
2019-05-11T06:24:28.691Z,97.30
2019-05-11T06:27:07.910Z,97.70
2019-05-11T06:29:38.661Z,97.10
2019-05-11T06:32:08.153Z,96.80
2019-05-11T06:34:44.422Z,96.80
2019-05-11T06:37:14.853Z,96.10
2019-05-11T06:39:44.651Z,95.60
2019-05-11T06:42:26.602Z,96.20
2019-05-11T06:44:56.854Z,96.10
2019-05-11T06:47:27.477Z,97.20
2019-05-11T06:50:05.949Z,97.10
2019-05-11T06:52:36.214Z,97.20
2019-05-11T06:55:07.470Z,97.10
2019-05-11T06:57:46.747Z,97.20
2019-05-11T07:00:37.798Z,97.20
2019-05-11T07:03:09.599Z,97.20
2019-05-11T07:05:48.832Z,98.40
2019-05-11T07:08:20.371Z,97.90
2019-05-11T07:10:49.992Z,98.30
2019-05-11T07:13:19.547Z,98.10
2019-05-11T07:15:48.909Z,98.40
2019-05-11T07:18:18.249Z,98.20
2019-05-11T07:20:50.880Z,98.10
2019-05-11T07:23:18.744Z,98.10
2019-05-11T07:25:48.890Z,98.80
2019-05-11T07:28:20.000Z,98.30
2019-05-11T07:30:49.942Z,97.60
2019-05-11T07:33:19.983Z,97.90
2019-05-11T07:36:17.598Z,97.90
2019-05-11T07:38:48.752Z,97.00
2019-05-11T07:41:18.679Z,97.40
2019-05-11T07:43:53.317Z,96.40
2019-05-11T07:46:23.497Z,96.60
2019-05-11T07:48:54.154Z,96.90
2019-05-11T07:51:44.324Z,97.60
2019-05-11T07:54:14.240Z,96.90
2019-05-11T07:56:44.177Z,96.70
2019-05-11T07:59:15.720Z,96.60
2019-05-11T08:01:47.737Z,96.10
2019-05-11T08:04:18.335Z,94.70
2019-05-11T08:06:48.069Z,95.30
2019-05-11T08:09:19.468Z,95.70
2019-05-11T08:11:49.300Z,95.80
2019-05-11T08:14:19.089Z,95.10
2019-05-11T08:16:49.369Z,96.10
2019-05-11T08:19:19.297Z,96.40
2019-05-11T08:21:51.228Z,96.50
2019-05-11T08:24:21.012Z,96.90
2019-05-11T08:26:51.663Z,97.00
2019-05-11T08:29:40.823Z,97.50
2019-05-11T08:32:11.634Z,97.90
2019-05-11T08:34:42.236Z,95.80
2019-05-11T08:37:12.492Z,96.40
2019-05-11T08:39:43.983Z,96.40
2019-05-11T08:42:14.139Z,94.40
2019-05-11T08:44:44.036Z,93.00
2019-05-11T08:47:14.556Z,95.70
2019-05-11T08:49:44.294Z,94.80
2019-05-11T08:52:14.267Z,96.30
2019-05-11T08:54:45.209Z,96.70
2019-05-11T08:57:34.397Z,95.00
2019-05-11T09:00:04.989Z,96.20
2019-05-11T09:02:35.366Z,96.60
2019-05-11T09:05:08.173Z,96.40
2019-05-11T09:10:40.352Z,97.00
2019-05-11T09:13:10.449Z,98.60
2019-05-11T09:15:40.912Z,97.50
2019-05-11T09:18:18.574Z,97.40
2019-05-11T09:20:48.762Z,96.50
2019-05-11T09:23:33.523Z,96.90
2019-05-11T09:25:58.178Z,97.50
2019-05-11T09:28:29.293Z,97.70
2019-05-11T09:30:58.382Z,97.20
2019-05-11T09:33:28.411Z,96.50
2019-05-11T09:35:58.480Z,97.40
2019-05-11T09:38:28.316Z,93.90
2019-05-11T09:40:59.265Z,95.80
2019-05-11T09:43:50.746Z,96.00
2019-05-11T09:46:39.390Z,94.80
2019-05-11T09:49:08.989Z,93.70
2019-05-11T09:51:39.479Z,94.40
2019-05-11T09:54:09.129Z,91.90
2019-05-11T09:56:38.991Z,94.40
2019-05-11T09:59:09.640Z,94.70
2019-05-11T10:01:40.250Z,94.90
2019-05-11T10:04:10.547Z,95.20
2019-05-11T10:06:48.086Z,94.10
2019-05-11T10:09:18.768Z,96.10
2019-05-11T10:11:48.209Z,92.60
2019-05-11T10:14:18.856Z,92.70
2019-05-11T10:16:49.339Z,95.10
2019-05-11T10:19:19.223Z,93.30
2019-05-11T10:21:48.923Z,92.80
2019-05-11T10:24:18.089Z,93.30
2019-05-11T10:26:48.785Z,91.90
2019-05-11T10:29:18.438Z,91.90
2019-05-11T10:31:48.219Z,92.50
2019-05-11T10:34:18.143Z,94.20
2019-05-11T10:36:48.678Z,93.30
2019-05-11T10:39:20.319Z,92.30
2019-05-11T10:41:50.438Z,90.90
2019-05-11T10:44:20.251Z,89.40
2019-05-11T10:46:50.381Z,93.50
2019-05-11T10:49:41.926Z,93.10
2019-05-11T10:52:11.760Z,93.40
2019-05-11T10:54:41.218Z,92.90
2019-05-11T10:57:11.251Z,91.80
2019-05-11T10:59:43.540Z,91.40
2019-05-11T11:02:14.299Z,92.80
2019-05-11T11:04:44.278Z,92.70
2019-05-11T11:07:16.427Z,92.10
2019-05-11T11:09:45.281Z,91.60
2019-05-11T11:12:15.840Z,93.70
2019-05-11T11:14:45.104Z,92.80
2019-05-11T11:17:14.441Z,89.50
2019-05-11T11:19:45.051Z,88.10
2019-05-11T11:25:39.374Z,91.90
2019-05-11T11:28:19.145Z,92.20
2019-05-11T11:30:49.775Z,94.20
2019-05-11T11:33:30.387Z,92.60
2019-05-11T11:36:37.928Z,92.30
2019-05-11T11:39:25.253Z,92.40
2019-05-11T11:41:58.547Z,93.30
2019-05-11T11:44:39.557Z,93.30
2019-05-11T11:47:10.512Z,93.30
2019-05-11T11:49:55.195Z,92.20
2019-05-11T11:52:38.279Z,93.50
2019-05-11T11:55:19.634Z,91.10
2019-05-11T11:58:23.628Z,95.20
2019-05-11T12:01:18.660Z,93.70
2019-05-11T12:04:11.400Z,93.40
2019-05-11T12:07:02.473Z,95.40
2019-05-11T12:09:52.663Z,94.20
2019-05-11T12:12:23.105Z,96.40
2019-05-11T12:14:53.302Z,94.70
2019-05-11T12:17:28.542Z,96.50
2019-05-11T12:19:59.137Z,95.70
2019-05-11T12:22:28.386Z,96.50
2019-05-11T12:24:58.956Z,96.70
2019-05-11T12:27:28.861Z,95.70
2019-05-11T12:29:58.480Z,92.70
2019-05-11T12:32:38.410Z,94.70
2019-05-11T12:35:09.685Z,94.60
2019-05-11T12:37:39.999Z,96.00
2019-05-11T12:40:11.408Z,94.40
2019-05-11T12:42:40.938Z,93.80
2019-05-11T12:45:13.457Z,95.10
2019-05-11T12:48:12.530Z,93.90
2019-05-11T12:50:43.812Z,96.50
2019-05-11T12:53:34.870Z,93.30
2019-05-11T12:56:04.741Z,93.40
2019-05-11T12:58:35.024Z,94.30
2019-05-11T13:01:08.742Z,95.00
2019-05-11T13:03:49.332Z,94.10
2019-05-11T13:06:19.219Z,93.40
2019-05-11T13:08:48.769Z,93.00
2019-05-11T13:11:18.869Z,94.30
2019-05-11T13:14:19.499Z,92.60
2019-05-11T13:16:51.384Z,94.40
2019-05-11T13:19:21.481Z,93.10
2019-05-11T13:24:48.042Z,94.00
2019-05-11T13:27:18.087Z,94.60
2019-05-11T13:30:09.754Z,92.30
2019-05-11T13:32:41.122Z,92.80
2019-05-11T13:35:31.109Z,94.70
2019-05-11T13:38:04.458Z,94.40
2019-05-11T13:40:35.191Z,92.20
2019-05-11T13:43:05.719Z,94.20
2019-05-11T13:45:35.536Z,93.20
2019-05-11T13:48:39.390Z,90.80
2019-05-11T13:51:09.461Z,91.70
2019-05-11T13:53:39.063Z,91.80
2019-05-11T13:56:18.406Z,92.10
2019-05-11T13:58:49.618Z,93.30
2019-05-11T14:01:20.411Z,91.20
2019-05-11T14:03:50.316Z,96.10
2019-05-11T14:06:22.192Z,93.40
2019-05-11T14:08:52.255Z,93.70
2019-05-11T14:11:23.061Z,94.00
2019-05-11T14:13:52.716Z,92.30
2019-05-11T14:16:23.056Z,92.10
2019-05-11T14:18:52.388Z,94.10
2019-05-11T14:21:23.719Z,93.40
2019-05-11T14:23:54.629Z,94.00
2019-05-11T14:26:24.447Z,95.00
2019-05-11T14:28:54.047Z,93.70
2019-05-11T14:31:23.488Z,94.10
2019-05-11T14:36:48.266Z,94.40
2019-05-11T14:39:19.317Z,94.50
2019-05-11T14:41:58.721Z,93.30
2019-05-11T14:44:28.582Z,95.00
2019-05-11T14:46:59.552Z,94.30
2019-05-11T14:49:37.894Z,95.50
2019-05-11T14:52:08.285Z,92.90
2019-05-11T14:54:38.240Z,94.80
2019-05-11T14:57:25.224Z,93.30
2019-05-11T15:00:28.782Z,95.50
2019-05-11T15:03:28.764Z,95.50
2019-05-11T15:05:58.226Z,95.60
2019-05-11T15:14:15.242Z,95.60
2019-05-11T15:17:18.635Z,94.80
2019-05-11T15:20:08.652Z,94.90
2019-05-11T15:22:37.903Z,95.40
2019-05-11T15:25:10.130Z,96.40
2019-05-11T15:27:48.803Z,96.30
2019-05-11T15:30:18.435Z,94.00
2019-05-11T15:32:48.451Z,94.60
2019-05-11T15:35:18.518Z,95.80
2019-05-11T15:37:48.664Z,94.80
2019-05-11T15:40:19.527Z,95.10
2019-05-11T15:42:48.903Z,95.90
2019-05-11T15:45:18.882Z,92.70
2019-05-11T15:47:48.788Z,94.70
2019-05-11T15:50:26.080Z,94.10
2019-05-11T15:52:58.190Z,94.80
2019-05-11T15:55:28.038Z,95.30
2019-05-11T15:58:23.698Z,95.60
2019-05-11T16:00:53.752Z,96.70
2019-05-11T16:03:24.839Z,95.30
2019-05-11T16:05:58.356Z,96.00
2019-05-11T16:08:28.487Z,95.70
2019-05-11T16:10:58.445Z,95.90
2019-05-11T16:13:28.568Z,96.70
2019-05-11T16:15:58.457Z,94.50
2019-05-11T16:18:27.658Z,95.00
2019-05-11T16:21:03.107Z,95.20
2019-05-11T16:23:33.110Z,96.00
2019-05-11T16:26:03.009Z,95.00
2019-05-11T16:28:55.068Z,95.40
2019-05-11T16:31:24.475Z,95.50
2019-05-11T16:33:53.950Z,94.30
2019-05-11T16:36:28.923Z,94.80
2019-05-11T16:38:58.312Z,93.50
2019-05-11T16:41:29.183Z,94.70
2019-05-11T16:43:59.165Z,96.20
2019-05-11T16:46:34.415Z,96.50
2019-05-11T16:49:04.221Z,94.80
2019-05-11T16:51:41.831Z,95.70
2019-05-11T16:54:11.723Z,95.90
2019-05-11T16:56:42.032Z,96.10
2019-05-11T16:59:20.918Z,95.20
2019-05-11T17:01:50.645Z,96.00
2019-05-11T17:04:20.580Z,94.50
2019-05-11T17:06:57.889Z,95.90
2019-05-11T17:09:28.763Z,95.10
2019-05-11T17:11:58.109Z,95.50
2019-05-11T17:14:34.271Z,95.30
2019-05-11T17:17:04.090Z,95.10
2019-05-11T17:19:43.748Z,95.00
2019-05-11T17:24:49.400Z,96.90
2019-05-11T17:27:19.008Z,96.30
2019-05-11T17:30:00.844Z,94.70
2019-05-11T17:32:31.845Z,95.40
2019-05-11T17:35:01.447Z,96.30
2019-05-11T17:37:38.049Z,95.60
2019-05-11T17:40:10.583Z,95.30
2019-05-11T17:42:40.440Z,95.40
2019-05-11T17:45:30.057Z,96.40
2019-05-11T17:47:59.113Z,95.70
2019-05-11T17:50:48.754Z,95.80
2019-05-11T17:53:25.230Z,95.30
2019-05-11T17:56:03.116Z,94.80
2019-05-11T17:58:33.017Z,95.20
2019-05-11T18:01:02.369Z,94.00
2019-05-11T18:06:22.186Z,95.80
2019-05-11T18:08:53.003Z,96.00
2019-05-11T18:11:30.408Z,95.80
2019-05-11T18:14:01.400Z,96.60
2019-05-11T18:16:32.686Z,96.40
2019-05-11T18:19:02.489Z,95.90
2019-05-11T18:21:33.231Z,95.60
2019-05-11T18:24:03.095Z,95.70
2019-05-11T18:26:40.435Z,95.90
2019-05-11T18:29:09.659Z,96.00
2019-05-11T18:31:39.588Z,95.60
2019-05-11T18:34:17.864Z,95.50
2019-05-11T18:36:48.534Z,95.20
2019-05-11T18:39:18.758Z,95.60
2019-05-11T18:41:49.714Z,95.60
2019-05-11T18:44:20.747Z,95.00
2019-05-11T18:47:10.992Z,95.00
2019-05-11T18:49:48.459Z,94.80
2019-05-11T18:52:18.801Z,93.90
2019-05-11T18:54:50.420Z,94.50
2019-05-11T18:57:29.708Z,94.60
2019-05-11T18:59:59.531Z,94.60
2019-05-11T19:02:30.630Z,94.70
2019-05-11T19:05:08.105Z,94.40
2019-05-11T19:07:38.782Z,94.10
2019-05-11T19:10:09.271Z,94.10
2019-05-11T19:12:41.606Z,93.40
2019-05-11T19:15:11.867Z,93.70
2019-05-11T19:17:50.647Z,93.70
2019-05-11T19:20:25.096Z,93.70
2019-05-11T19:22:55.288Z,94.20
2019-05-11T19:25:24.797Z,94.40
2019-05-11T19:28:02.533Z,94.60
2019-05-11T19:30:32.012Z,94.80
2019-05-11T19:33:02.220Z,94.70
2019-05-11T19:35:37.864Z,95.10
2019-05-11T19:38:08.714Z,94.10
2019-05-11T19:40:38.767Z,94.40
2019-05-11T19:43:08.151Z,94.30
2019-05-11T19:45:38.453Z,94.30
2019-05-11T19:48:08.614Z,94.30
2019-05-11T19:51:06.942Z,94.20
2019-05-11T19:53:31.541Z,93.70
2019-05-11T19:56:01.072Z,93.90
2019-05-11T19:58:52.024Z,94.30
2019-05-11T20:01:22.046Z,94.40
2019-05-11T20:03:51.431Z,94.40
2019-05-11T20:06:28.124Z,94.50
2019-05-11T20:08:58.073Z,95.00
2019-05-11T20:11:28.012Z,95.00
2019-05-11T20:13:58.997Z,94.80
2019-05-11T20:16:28.329Z,95.20
2019-05-11T20:19:00.289Z,95.30
2019-05-11T20:21:48.417Z,94.90
2019-05-11T20:24:18.676Z,94.20
2019-05-11T20:26:49.244Z,92.90
2019-05-11T20:29:18.759Z,93.10
2019-05-11T20:31:48.604Z,92.30
2019-05-11T20:34:18.293Z,91.20
2019-05-11T20:36:58.686Z,91.00
2019-05-11T20:39:29.258Z,90.50
2019-05-11T20:41:58.314Z,89.90
2019-05-11T20:44:53.030Z,90.40
2019-05-11T20:47:23.806Z,90.10
2019-05-11T20:49:55.309Z,90.40
2019-05-11T20:52:29.458Z,90.70
2019-05-11T20:54:59.271Z,90.30
2019-05-11T20:57:30.117Z,90.50
2019-05-11T21:00:07.966Z,90.10
2019-05-11T21:02:38.255Z,91.70
2019-05-11T21:05:09.039Z,89.90
2019-05-11T21:07:46.039Z,90.00
2019-05-11T21:10:38.133Z,90.00
2019-05-11T21:13:08.558Z,90.10
2019-05-11T21:15:47.682Z,90.00
2019-05-11T21:18:18.409Z,90.90
2019-05-11T21:20:48.337Z,90.60
2019-05-11T21:23:18.689Z,91.40
2019-05-11T21:25:53.225Z,91.70
2019-05-11T21:28:23.325Z,90.00
2019-05-11T21:31:12.954Z,90.30
2019-05-11T21:33:41.906Z,90.10
2019-05-11T21:36:28.464Z,90.60
2019-05-11T21:39:07.960Z,89.90
2019-05-11T21:41:38.668Z,90.10
2019-05-11T21:47:07.709Z,90.50
2019-05-11T21:49:37.809Z,90.60
2019-05-11T21:52:09.321Z,90.50
2019-05-11T21:54:38.953Z,90.80
2019-05-11T22:00:08.976Z,90.50
2019-05-11T22:03:02.151Z,90.70
2019-05-11T22:08:35.240Z,90.40
2019-05-11T22:11:10.534Z,90.50
2019-05-11T22:13:50.381Z,91.10
2019-05-11T22:16:19.954Z,90.40
2019-05-11T22:18:49.038Z,90.50
2019-05-11T22:21:19.042Z,90.60
2019-05-11T22:23:50.680Z,90.70
2019-05-11T22:26:19.466Z,90.40
2019-05-11T22:28:54.723Z,90.40
2019-05-11T22:31:35.313Z,91.00
2019-05-11T22:34:28.365Z,90.80
2019-05-11T22:36:58.217Z,91.00
2019-05-11T22:39:40.520Z,91.10
2019-05-11T22:42:29.056Z,90.40
2019-05-11T22:45:15.267Z,91.30
2019-05-11T22:47:49.645Z,90.70
2019-05-11T22:50:50.539Z,90.50
2019-05-11T22:53:19.268Z,90.30
2019-05-11T22:55:48.959Z,90.50
2019-05-11T22:58:18.812Z,90.40
2019-05-11T23:00:48.020Z,90.70
2019-05-11T23:03:19.149Z,91.20
2019-05-11T23:05:50.494Z,91.20
2019-05-11T23:08:42.154Z,91.00
2019-05-11T23:11:14.581Z,91.20
2019-05-11T23:13:49.252Z,89.80
2019-05-11T23:16:32.841Z,90.40
2019-05-11T23:19:09.543Z,90.70
2019-05-11T23:21:38.821Z,90.10
2019-05-11T23:27:02.490Z,90.90
2019-05-11T23:29:32.579Z,90.50
2019-05-11T23:32:08.650Z,91.00
2019-05-11T23:38:00.752Z,90.80
2019-05-11T23:40:29.775Z,90.80
2019-05-11T23:42:59.947Z,90.60
2019-05-11T23:45:33.196Z,90.60
2019-05-11T23:50:38.656Z,91.40
2019-05-11T23:53:10.363Z,90.80
2019-05-11T23:55:39.151Z,91.40
2019-05-11T23:58:08.888Z,91.00
